Galway Airport

EICM · Connaught, 爱尔兰

METAR EICM · Galway Airport

5 十二月 02:00 LT
15m
罗盘
风向 的 风向 060° Galway Airport 8/26
风: 9 kt, 3 beaufort

9 kt

2 kt
改变
0 6.000 12.000 18.000 24.000 30.000
FEW 3.000 ft
SCT 22.000 ft
METAR EINN 050200Z 06009KT 9999 FEW030 SCT220 05/03 Q1022 NOSIG

METAR Galway Airport - EICM/GWY

Galway Airport是,爱尔兰中的中型机场。 该机场有一条跑道: 8/26. 该领域的国际民航组织标志是EICM 它的国际航空运输协会代码是GWY.

这份报告是针对2022年12月5日 02:00, 当地时间在香農機場进行的。

机场观察

风向为060°,速度为9 kt。

可见度为10 km 或者更多。

有几云在3.000 ft的高度 和 疏云,零星散落的云朵在22.000 ft的高度。 没有观察到天花板。

温度为5 °C,阵风为0 °C。 露点为3 °C,相对湿度为87%。 海平面上的气压为1022 hPa (QNH)。

白天

今天,太阳从08:33升起,在16:19降落。 这适用于Galway Airport,世界夏令时可能有所不同。 当地时间与世界标准时间之间的时差为+0 小时。 当前,没有夏令时有效。

公司介绍

我们没有关于这个机场的公司信息。

体会

到Vliegles.nl去找飞行课程,跳伞和其他飞行体验。 浏览页面,了解Galway Airport附近所有可用的活动。 你也可以使用搜索功能来寻找你所在地附近的特定飞行课程、跳伞或其他飞行体验。

跑道

Id 标题 侧风 逆风 侧风 %
8/26 075°-255° 2 kt 9 kt 26 %

逆风成分最大的方向会被突出显示,并用于横风计算。 这并不一定意味着这个方向在使用。

乌云

3.000 ft FEW 几云
22.000 ft SCT 疏云,零星散落的云朵

温度 & 天气

温度 5 °C
露点 3 °C
相对湿度 87%
风寒 0 °C
Kp-index 0 (0-9)

白天

日出
08:30 (6:14)
中午
12:26
日落
16:22

小工具

你想在你的网站上有一个关于Galway Airport的当前航空天气(METAR)的小部件吗?

显示HTML代码

我们和第三方通过cookies跟踪您在我们网站上的互联网行为。如果你继续,我们认为你同意我们的饼干政策